createdAt,value
2016-07-29T00:00:35.116Z,953.35
2016-07-29T00:01:35.122Z,953.38
2016-07-29T00:02:35.103Z,953.35
2016-07-29T00:03:35.100Z,953.33
2016-07-29T00:04:35.107Z,953.32
2016-07-29T00:05:35.109Z,953.34
2016-07-29T00:06:35.097Z,953.31
2016-07-29T00:07:35.094Z,953.35
2016-07-29T00:08:35.096Z,953.3
2016-07-29T00:09:35.090Z,953.31
2016-07-29T00:10:35.094Z,953.25
2016-07-29T00:11:35.090Z,953.29
2016-07-29T00:12:35.088Z,953.28
2016-07-29T00:13:35.086Z,953.26
2016-07-29T00:14:35.076Z,953.29
2016-07-29T00:15:35.084Z,953.27
2016-07-29T00:16:35.100Z,953.29
2016-07-29T00:17:35.090Z,953.3
2016-07-29T00:18:35.084Z,953.3
2016-07-29T00:19:35.089Z,953.33
2016-07-29T00:20:35.082Z,953.38
2016-07-29T00:21:35.074Z,953.44
2016-07-29T00:22:35.081Z,953.44
2016-07-29T00:23:35.072Z,953.46
2016-07-29T00:24:35.070Z,953.46
2016-07-29T00:25:35.073Z,953.49
2016-07-29T00:26:35.069Z,953.48
2016-07-29T00:27:35.073Z,953.43
2016-07-29T00:28:35.314Z,953.38
2016-07-29T00:29:35.063Z,953.36
2016-07-29T00:30:35.069Z,953.36
2016-07-29T00:31:35.059Z,953.39
2016-07-29T00:32:35.052Z,953.34
2016-07-29T00:33:35.056Z,953.36
2016-07-29T00:34:35.050Z,953.36
2016-07-29T00:35:35.052Z,953.39
2016-07-29T00:36:35.052Z,953.4
2016-07-29T00:37:35.050Z,953.42
2016-07-29T00:38:35.049Z,953.41
2016-07-29T00:39:35.040Z,953.39
2016-07-29T00:40:35.062Z,953.44
2016-07-29T00:41:35.049Z,953.45
2016-07-29T00:42:35.063Z,953.47
2016-07-29T00:43:35.040Z,953.43
2016-07-29T00:44:35.039Z,953.43
2016-07-29T00:45:35.039Z,953.41
2016-07-29T00:46:35.025Z,953.38
2016-07-29T00:47:35.044Z,953.41
2016-07-29T00:48:35.036Z,953.41
2016-07-29T00:49:35.039Z,953.41
2016-07-29T00:50:35.035Z,953.42
2016-07-29T00:51:35.037Z,953.46
2016-07-29T00:52:35.032Z,953.44
2016-07-29T00:53:35.028Z,953.47
2016-07-29T00:54:35.030Z,953.46
2016-07-29T00:55:35.019Z,953.46
2016-07-29T00:56:35.015Z,953.43
2016-07-29T00:57:35.020Z,953.46
2016-07-29T00:58:35.015Z,953.48
2016-07-29T00:59:35.011Z,953.43
2016-07-29T01:00:35.037Z,953.41
2016-07-29T01:01:35.018Z,953.4
2016-07-29T01:02:35.017Z,953.39
2016-07-29T01:03:35.024Z,953.39
2016-07-29T01:04:35.012Z,953.34
2016-07-29T01:05:35.004Z,953.31
2016-07-29T01:06:34.984Z,953.33
2016-07-29T01:07:35.001Z,953.33
2016-07-29T01:08:35.004Z,953.28
2016-07-29T01:09:34.989Z,953.3
2016-07-29T01:10:34.995Z,953.28
2016-07-29T01:11:35.002Z,953.27
2016-07-29T01:12:34.993Z,953.24
2016-07-29T01:13:34.994Z,953.27
2016-07-29T01:14:35.002Z,953.27
2016-07-29T01:15:34.996Z,953.23
2016-07-29T01:16:34.981Z,953.23
2016-07-29T01:17:34.975Z,953.22
2016-07-29T01:18:34.983Z,953.22
2016-07-29T01:19:34.981Z,953.2
2016-07-29T01:20:34.969Z,953.2
2016-07-29T01:21:34.969Z,953.23
2016-07-29T01:22:34.974Z,953.24
2016-07-29T01:23:34.967Z,953.25
2016-07-29T01:24:34.971Z,953.26
2016-07-29T01:25:34.963Z,953.26
2016-07-29T01:26:34.963Z,953.26
2016-07-29T01:27:34.962Z,953.22
2016-07-29T01:28:34.962Z,953.23
2016-07-29T01:29:34.950Z,953.24
2016-07-29T01:30:34.957Z,953.21
2016-07-29T01:31:34.951Z,953.21
2016-07-29T01:32:34.954Z,953.19
2016-07-29T01:33:34.949Z,953.22
2016-07-29T01:34:34.963Z,953.23
2016-07-29T01:35:34.956Z,953.2
2016-07-29T01:36:34.950Z,953.16
2016-07-29T01:37:34.933Z,953.12
2016-07-29T01:38:34.944Z,953.15
2016-07-29T01:39:34.936Z,953.14
2016-07-29T01:40:34.932Z,953.12
2016-07-29T01:41:34.935Z,953.1
2016-07-29T01:42:34.928Z,953.12
2016-07-29T01:43:34.919Z,953.11
2016-07-29T01:44:34.922Z,953.13
2016-07-29T01:45:34.925Z,953.09
2016-07-29T01:46:34.934Z,953.1
2016-07-29T01:47:34.917Z,953.01
2016-07-29T01:48:34.910Z,953.06
2016-07-29T01:49:34.907Z,953.06
2016-07-29T01:50:34.907Z,953.07
2016-07-29T01:51:34.913Z,953.05
2016-07-29T01:52:34.904Z,953.1
2016-07-29T01:53:34.893Z,953.07
2016-07-29T01:54:34.905Z,953.03
2016-07-29T01:55:34.903Z,953.02
2016-07-29T01:56:34.905Z,953.04
2016-07-29T01:57:34.895Z,953
2016-07-29T01:58:34.893Z,953
2016-07-29T01:59:34.891Z,953.03
2016-07-29T02:00:34.884Z,953.02
2016-07-29T02:01:34.880Z,953.01
2016-07-29T02:02:34.873Z,953.04
2016-07-29T02:03:34.884Z,953.03
2016-07-29T02:04:34.868Z,953.02
2016-07-29T02:05:34.875Z,953.04
2016-07-29T02:06:34.869Z,953.01
2016-07-29T02:07:34.875Z,953.08
2016-07-29T02:08:34.875Z,953.1
2016-07-29T02:09:34.861Z,953.12
2016-07-29T02:10:34.857Z,953.09
2016-07-29T02:11:34.858Z,953.09
2016-07-29T02:12:34.857Z,953.07
2016-07-29T02:13:34.852Z,953.07
2016-07-29T02:14:34.849Z,953.04
2016-07-29T02:15:34.840Z,953.05
2016-07-29T02:16:34.843Z,953.06
2016-07-29T02:17:34.854Z,953.01
2016-07-29T02:18:34.888Z,953.02
2016-07-29T02:19:34.825Z,953.01
2016-07-29T02:20:34.832Z,953.08
2016-07-29T02:21:34.828Z,953.07
2016-07-29T02:22:34.828Z,953.11
2016-07-29T02:23:34.822Z,953.14
2016-07-29T02:24:34.815Z,953.13
2016-07-29T02:25:34.839Z,953.09
2016-07-29T02:26:34.818Z,953.03
2016-07-29T02:27:34.810Z,953.1
2016-07-29T02:28:34.827Z,953.1
2016-07-29T02:29:34.826Z,953.12
2016-07-29T02:30:34.805Z,953.06
2016-07-29T02:31:34.841Z,953.07
2016-07-29T02:32:34.791Z,953.04
2016-07-29T02:33:34.801Z,953.04
2016-07-29T02:34:34.785Z,953.04
2016-07-29T02:35:34.801Z,953.06
2016-07-29T02:36:34.783Z,953.03
2016-07-29T02:37:34.780Z,953.02
2016-07-29T02:38:34.791Z,953.05
2016-07-29T02:39:34.774Z,953.06
2016-07-29T02:40:34.772Z,953
2016-07-29T02:41:34.779Z,953.03
2016-07-29T02:42:34.770Z,953.02
2016-07-29T02:43:34.755Z,952.99
2016-07-29T02:44:34.756Z,952.97
2016-07-29T02:45:34.761Z,952.97
2016-07-29T02:46:34.756Z,953
2016-07-29T02:47:34.752Z,953
2016-07-29T02:48:34.768Z,952.96
2016-07-29T02:49:34.998Z,952.94
2016-07-29T02:50:34.760Z,952.97
2016-07-29T02:51:34.743Z,952.97
2016-07-29T02:52:34.737Z,953.03
2016-07-29T02:53:34.727Z,952.96
2016-07-29T02:54:34.735Z,953
2016-07-29T02:55:34.733Z,952.98
2016-07-29T02:56:34.731Z,952.98
2016-07-29T02:57:34.723Z,953.04
2016-07-29T02:58:34.723Z,952.99
2016-07-29T02:59:34.722Z,953
2016-07-29T03:00:34.709Z,952.98
2016-07-29T03:01:34.714Z,953.02
2016-07-29T03:02:34.701Z,953.05
2016-07-29T03:03:34.716Z,953.04
2016-07-29T03:04:34.700Z,953.04
2016-07-29T03:05:34.701Z,953
2016-07-29T03:06:34.690Z,952.98
2016-07-29T03:07:34.706Z,952.98
2016-07-29T03:08:34.708Z,953
2016-07-29T03:09:34.700Z,952.97
2016-07-29T03:10:34.682Z,952.98
2016-07-29T03:11:34.700Z,952.96
2016-07-29T03:12:34.682Z,952.95
2016-07-29T03:13:34.680Z,952.95
2016-07-29T03:14:34.660Z,952.92
2016-07-29T03:15:34.664Z,952.96
2016-07-29T03:16:34.669Z,952.92
2016-07-29T03:17:34.666Z,952.94
2016-07-29T03:18:34.668Z,952.99
2016-07-29T03:19:34.669Z,953
2016-07-29T03:20:34.648Z,952.99
2016-07-29T03:21:34.655Z,952.94
2016-07-29T03:22:34.643Z,952.98
2016-07-29T03:23:34.648Z,952.99
2016-07-29T03:24:34.638Z,953.01
2016-07-29T03:25:34.644Z,953
2016-07-29T03:26:34.639Z,953
2016-07-29T03:27:34.639Z,953.05
2016-07-29T03:28:34.635Z,953.05
2016-07-29T03:29:34.625Z,953.06
2016-07-29T03:30:34.616Z,953.11
2016-07-29T03:31:34.621Z,953.1
2016-07-29T03:33:34.610Z,953.07
2016-07-29T03:34:34.608Z,953.1
2016-07-29T03:35:34.613Z,953.06
2016-07-29T03:36:34.608Z,953.08
2016-07-29T03:37:34.593Z,953.07
2016-07-29T03:38:34.592Z,953.06
2016-07-29T03:39:34.599Z,953.06
2016-07-29T03:40:34.594Z,953.1
2016-07-29T03:41:34.594Z,953.07
2016-07-29T03:42:34.589Z,953.08
2016-07-29T03:43:34.592Z,953.07
2016-07-29T03:44:34.594Z,953.09
2016-07-29T03:45:34.582Z,953.09
2016-07-29T03:46:34.578Z,953.13
2016-07-29T03:48:34.574Z,953.11
2016-07-29T03:49:34.582Z,953.11
2016-07-29T03:50:34.551Z,953.1
2016-07-29T03:51:34.550Z,953.13
2016-07-29T03:52:34.584Z,953.1
2016-07-29T03:53:34.551Z,953.11
2016-07-29T03:54:34.541Z,953.1
2016-07-29T03:55:34.538Z,953.08
2016-07-29T03:56:34.555Z,953.08
2016-07-29T03:57:34.561Z,953.04
2016-07-29T03:58:34.541Z,953.01
2016-07-29T03:59:34.543Z,953
2016-07-29T04:00:34.534Z,953.03
2016-07-29T04:01:34.539Z,953.01
2016-07-29T04:03:34.543Z,953.06
2016-07-29T04:04:34.749Z,953.02
2016-07-29T04:05:34.524Z,953.06
2016-07-29T04:06:34.525Z,953.02
2016-07-29T04:07:34.518Z,953.01
2016-07-29T04:08:34.521Z,953.02
2016-07-29T04:09:34.509Z,953.03
2016-07-29T04:10:34.510Z,953.03
2016-07-29T04:11:34.512Z,953.07
2016-07-29T04:12:34.500Z,953.06
2016-07-29T04:13:34.499Z,953.05
2016-07-29T04:14:34.498Z,953.07
2016-07-29T04:15:34.492Z,953.1
2016-07-29T04:16:34.495Z,953.09
2016-07-29T04:17:34.490Z,953.08
2016-07-29T04:18:34.490Z,953.08
2016-07-29T04:19:34.485Z,953.08
2016-07-29T04:20:34.483Z,953.06
2016-07-29T04:21:34.497Z,953.09
2016-07-29T04:22:34.479Z,953.07
2016-07-29T04:23:34.481Z,953.13
2016-07-29T04:24:34.472Z,953.1
2016-07-29T04:25:34.471Z,953.08
2016-07-29T04:26:34.466Z,953.13
2016-07-29T04:27:34.471Z,953.13
2016-07-29T04:28:34.468Z,953.11
2016-07-29T04:29:34.459Z,953.16
2016-07-29T04:30:34.455Z,953.14
2016-07-29T04:31:34.459Z,953.15
2016-07-29T04:32:34.451Z,953.14
2016-07-29T04:33:34.452Z,953.11
2016-07-29T04:34:34.442Z,953.13
2016-07-29T04:35:34.439Z,953.2
2016-07-29T04:36:34.446Z,953.17
2016-07-29T04:37:34.434Z,953.13
2016-07-29T04:38:34.437Z,953.17
2016-07-29T04:39:34.432Z,953.16
2016-07-29T04:40:34.436Z,953.16
2016-07-29T04:41:34.430Z,953.2
2016-07-29T04:42:34.424Z,953.14
2016-07-29T04:43:34.434Z,953.17
2016-07-29T04:44:34.419Z,953.14
2016-07-29T04:45:34.410Z,953.19
2016-07-29T04:46:34.416Z,953.13
2016-07-29T04:47:34.414Z,953.18
2016-07-29T04:48:34.408Z,953.14
2016-07-29T04:49:34.411Z,953.22
2016-07-29T04:50:34.406Z,953.16
2016-07-29T04:51:34.410Z,953.12
2016-07-29T04:52:34.409Z,953.11
2016-07-29T04:53:34.433Z,953.14
2016-07-29T04:54:34.385Z,953.11
2016-07-29T04:55:34.390Z,953.1
2016-07-29T04:56:34.383Z,953.1
2016-07-29T04:57:34.390Z,953.1
2016-07-29T04:58:34.379Z,953.11
2016-07-29T04:59:34.377Z,953.13
2016-07-29T05:00:34.378Z,953.1
2016-07-29T05:01:34.372Z,953.05
2016-07-29T05:02:34.365Z,953.09
2016-07-29T05:03:34.367Z,953.11
2016-07-29T05:04:34.371Z,953.11
2016-07-29T05:05:34.368Z,953.12
2016-07-29T05:06:34.357Z,953.12
2016-07-29T05:07:34.351Z,953.14
2016-07-29T05:08:34.341Z,953.15
2016-07-29T05:09:34.352Z,953.12
2016-07-29T05:10:34.357Z,953.12
2016-07-29T05:11:34.351Z,953.15
2016-07-29T05:12:34.348Z,953.17
2016-07-29T05:13:34.349Z,953.14
2016-07-29T05:14:34.332Z,953.17
2016-07-29T05:15:34.339Z,953.16
2016-07-29T05:16:34.330Z,953.21
2016-07-29T05:17:34.323Z,953.19
2016-07-29T05:18:34.323Z,953.18
2016-07-29T05:19:34.330Z,953.18
2016-07-29T05:20:34.331Z,953.22
2016-07-29T05:21:34.336Z,953.22
2016-07-29T05:22:34.324Z,953.27
2016-07-29T05:23:34.326Z,953.27
2016-07-29T05:24:34.322Z,953.31
2016-07-29T05:25:34.322Z,953.31
2016-07-29T05:26:34.309Z,953.31
2016-07-29T05:27:34.313Z,953.27
2016-07-29T05:28:34.318Z,953.32
2016-07-29T05:29:34.299Z,953.26
2016-07-29T05:30:34.307Z,953.29
2016-07-29T05:31:34.300Z,953.33
2016-07-29T05:32:34.305Z,953.29
2016-07-29T05:33:34.294Z,953.28
2016-07-29T05:34:34.292Z,953.35
2016-07-29T05:35:34.299Z,953.36
2016-07-29T05:36:34.298Z,953.33
2016-07-29T05:37:34.298Z,953.36
2016-07-29T05:38:34.294Z,953.33
2016-07-29T05:39:34.285Z,953.29
2016-07-29T05:40:34.288Z,953.32
2016-07-29T05:41:34.290Z,953.32
2016-07-29T05:42:34.282Z,953.33
2016-07-29T05:43:34.280Z,953.34
2016-07-29T05:44:34.280Z,953.34
2016-07-29T05:45:34.279Z,953.32
2016-07-29T05:46:34.285Z,953.35
2016-07-29T05:47:34.282Z,953.36
2016-07-29T05:48:34.287Z,953.36
2016-07-29T05:49:34.273Z,953.3
2016-07-29T05:50:34.270Z,953.32
2016-07-29T05:51:34.273Z,953.34
2016-07-29T05:52:34.270Z,953.3
2016-07-29T05:53:34.278Z,953.31
2016-07-29T05:54:34.270Z,953.31
2016-07-29T05:55:34.275Z,953.34
2016-07-29T05:56:34.271Z,953.4
2016-07-29T05:57:34.265Z,953.36
2016-07-29T05:58:34.275Z,953.38
2016-07-29T05:59:34.269Z,953.34
2016-07-29T06:00:34.269Z,953.38
2016-07-29T06:01:34.281Z,953.35
2016-07-29T06:02:34.279Z,953.33
2016-07-29T06:03:34.272Z,953.31
2016-07-29T06:04:34.261Z,953.32
2016-07-29T06:05:34.261Z,953.33
2016-07-29T06:06:34.257Z,953.31
2016-07-29T06:07:34.268Z,953.27
2016-07-29T06:08:34.273Z,953.31
2016-07-29T06:09:34.264Z,953.32
2016-07-29T06:10:34.251Z,953.23
2016-07-29T06:11:34.258Z,953.26
2016-07-29T06:12:34.260Z,953.3
2016-07-29T06:13:34.257Z,953.31
2016-07-29T06:14:34.263Z,953.31
2016-07-29T06:15:34.267Z,953.34
2016-07-29T06:16:34.258Z,953.3
2016-07-29T06:17:34.259Z,953.3
2016-07-29T06:19:34.254Z,953.32
2016-07-29T06:20:34.261Z,953.3
2016-07-29T06:21:34.249Z,953.32
2016-07-29T06:22:34.265Z,953.32
2016-07-29T06:23:34.255Z,953.31
2016-07-29T06:24:34.254Z,953.34
2016-07-29T06:25:34.255Z,953.32
2016-07-29T06:26:34.259Z,953.31
2016-07-29T06:27:34.242Z,953.33
2016-07-29T06:28:34.256Z,953.32
2016-07-29T06:29:34.254Z,953.34
2016-07-29T06:30:34.253Z,953.33
2016-07-29T06:31:34.250Z,953.33
2016-07-29T06:32:34.247Z,953.37
2016-07-29T06:34:34.253Z,953.32
2016-07-29T06:35:34.254Z,953.3
2016-07-29T06:36:34.248Z,953.32
2016-07-29T06:37:34.251Z,953.35
2016-07-29T06:38:34.244Z,953.29
2016-07-29T06:39:34.246Z,953.3
2016-07-29T06:40:34.251Z,953.34
2016-07-29T06:41:34.250Z,953.34
2016-07-29T06:42:34.248Z,953.33
2016-07-29T06:43:34.247Z,953.38
2016-07-29T06:44:34.250Z,953.39
2016-07-29T06:45:34.251Z,953.35
2016-07-29T06:46:34.252Z,953.39
2016-07-29T06:47:34.247Z,953.37
2016-07-29T06:48:34.250Z,953.34
2016-07-29T06:50:34.250Z,953.4
2016-07-29T06:51:34.257Z,953.39
2016-07-29T06:52:34.264Z,953.39
2016-07-29T06:53:34.242Z,953.39
2016-07-29T06:54:34.238Z,953.42
2016-07-29T06:55:34.246Z,953.37
2016-07-29T06:56:34.262Z,953.43
2016-07-29T06:57:34.248Z,953.42
2016-07-29T06:58:34.249Z,953.42
2016-07-29T06:59:34.251Z,953.41
2016-07-29T07:00:34.237Z,953.48
2016-07-29T07:01:34.250Z,953.47
2016-07-29T07:02:34.250Z,953.46
2016-07-29T07:03:34.245Z,953.47
2016-07-29T07:04:34.243Z,953.46
2016-07-29T07:05:34.238Z,953.51
2016-07-29T07:06:34.252Z,953.47
2016-07-29T07:07:34.243Z,953.52
2016-07-29T07:08:34.240Z,953.52
2016-07-29T07:09:34.249Z,953.5
2016-07-29T07:10:34.244Z,953.51
2016-07-29T07:11:34.251Z,953.48
2016-07-29T07:12:34.250Z,953.51
2016-07-29T07:13:34.247Z,953.55
2016-07-29T07:14:34.236Z,953.57
2016-07-29T07:15:34.233Z,953.63
2016-07-29T07:16:34.245Z,953.64
2016-07-29T07:17:34.241Z,953.64
2016-07-29T07:19:34.240Z,953.61
2016-07-29T07:20:34.234Z,953.55
2016-07-29T07:21:34.234Z,953.56
2016-07-29T07:22:34.242Z,953.62
2016-07-29T07:23:34.240Z,953.61
2016-07-29T07:24:34.241Z,953.59
2016-07-29T07:25:34.242Z,953.6
2016-07-29T07:26:34.235Z,953.58
2016-07-29T07:27:34.240Z,953.58
2016-07-29T07:28:34.237Z,953.55
2016-07-29T07:29:34.228Z,953.52
2016-07-29T07:30:34.234Z,953.54
2016-07-29T07:31:34.236Z,953.57
2016-07-29T07:32:34.230Z,953.58
2016-07-29T07:33:34.227Z,953.61
2016-07-29T07:34:34.216Z,953.6
2016-07-29T07:35:34.224Z,953.61
2016-07-29T07:36:34.218Z,953.6
2016-07-29T07:37:34.220Z,953.58
2016-07-29T07:38:34.224Z,953.59
2016-07-29T07:39:34.220Z,953.51
2016-07-29T07:40:34.210Z,953.51
2016-07-29T07:41:34.216Z,953.5
2016-07-29T07:42:34.204Z,953.54
2016-07-29T07:43:34.206Z,953.55
2016-07-29T07:44:34.198Z,953.6
2016-07-29T07:45:34.199Z,953.6
2016-07-29T07:46:34.193Z,953.6
2016-07-29T07:47:34.202Z,953.57
2016-07-29T07:48:34.192Z,953.61
2016-07-29T07:49:34.191Z,953.63
2016-07-29T07:50:34.189Z,953.68
2016-07-29T07:51:34.196Z,953.73
2016-07-29T07:52:34.190Z,953.79
2016-07-29T07:53:34.186Z,953.74
2016-07-29T07:54:34.179Z,953.72
2016-07-29T07:55:34.176Z,953.74
2016-07-29T07:56:34.173Z,953.73
2016-07-29T07:57:34.176Z,953.73
2016-07-29T07:58:34.172Z,953.69
2016-07-29T07:59:34.175Z,953.63
2016-07-29T08:00:34.171Z,953.64
2016-07-29T08:01:34.166Z,953.59
2016-07-29T08:02:34.157Z,953.64
2016-07-29T08:04:34.153Z,953.62
2016-07-29T08:05:34.149Z,953.62
2016-07-29T08:06:34.145Z,953.59
2016-07-29T08:07:34.147Z,953.67
2016-07-29T08:08:34.137Z,953.67
2016-07-29T08:09:34.139Z,953.66
2016-07-29T08:10:34.136Z,953.67
2016-07-29T08:11:34.138Z,953.7
2016-07-29T08:12:34.128Z,953.74
2016-07-29T08:13:34.128Z,953.72
2016-07-29T08:14:34.122Z,953.77
2016-07-29T08:15:34.120Z,953.8
2016-07-29T08:16:34.126Z,953.79
2016-07-29T08:17:34.122Z,953.76
2016-07-29T08:19:34.104Z,953.79
2016-07-29T08:20:34.103Z,953.81
2016-07-29T08:21:34.111Z,953.85
2016-07-29T08:22:34.101Z,953.85
2016-07-29T08:23:34.095Z,953.88
2016-07-29T08:24:34.094Z,953.86
2016-07-29T08:25:34.090Z,953.89
2016-07-29T08:26:34.094Z,953.91
2016-07-29T08:27:34.084Z,953.89
2016-07-29T08:28:34.079Z,953.95
2016-07-29T08:29:34.078Z,953.92
2016-07-29T08:30:34.086Z,953.9
2016-07-29T08:31:34.085Z,953.91
2016-07-29T08:32:34.073Z,953.95
2016-07-29T08:34:34.058Z,953.84
2016-07-29T08:35:34.057Z,953.86
2016-07-29T08:36:34.056Z,953.84
2016-07-29T08:37:34.055Z,953.87
2016-07-29T08:38:34.049Z,953.86
2016-07-29T08:39:34.048Z,953.85
2016-07-29T08:40:34.047Z,953.86
2016-07-29T08:41:34.051Z,953.88
2016-07-29T08:42:34.046Z,953.86
2016-07-29T08:43:34.046Z,953.9
2016-07-29T08:44:34.030Z,953.89
2016-07-29T08:45:34.027Z,953.92
2016-07-29T08:46:34.037Z,953.97
2016-07-29T08:47:34.037Z,953.88
2016-07-29T08:48:34.043Z,953.92
2016-07-29T08:49:34.020Z,953.88
2016-07-29T08:50:34.030Z,953.9
2016-07-29T08:51:34.019Z,953.88
2016-07-29T08:52:34.019Z,953.88
2016-07-29T08:53:34.089Z,953.93
2016-07-29T08:54:34.035Z,953.92
2016-07-29T08:55:34.015Z,953.96
2016-07-29T08:56:34.004Z,954
2016-07-29T08:57:34.011Z,953.95
2016-07-29T08:58:34.004Z,954
2016-07-29T08:59:34.004Z,953.98
2016-07-29T09:00:34.005Z,953.96
2016-07-29T09:01:34.013Z,953.96
2016-07-29T09:02:34.010Z,953.9
2016-07-29T09:03:34.018Z,953.93
2016-07-29T09:04:34.007Z,953.95
2016-07-29T09:05:34.002Z,953.9
2016-07-29T09:06:33.991Z,953.88
2016-07-29T09:07:33.999Z,953.88
2016-07-29T09:08:34.004Z,953.91
2016-07-29T09:09:34.029Z,953.86
2016-07-29T09:10:33.992Z,953.83
2016-07-29T09:11:33.992Z,953.8
2016-07-29T09:13:34.010Z,953.78
2016-07-29T09:14:34.019Z,953.76
2016-07-29T09:15:34.003Z,953.78
2016-07-29T09:16:34.011Z,953.76
2016-07-29T09:17:34.020Z,953.72
2016-07-29T09:18:34.021Z,953.74
2016-07-29T09:19:34.031Z,953.77
2016-07-29T09:20:34.049Z,953.77
2016-07-29T09:21:34.006Z,953.74
2016-07-29T09:22:34.012Z,953.75
2016-07-29T09:23:33.999Z,953.75
2016-07-29T09:24:34.004Z,953.73
2016-07-29T09:25:33.990Z,953.71
2016-07-29T09:26:33.994Z,953.68
2016-07-29T09:27:33.992Z,953.72
2016-07-29T09:28:33.991Z,953.71
2016-07-29T09:29:33.997Z,953.74
2016-07-29T09:30:34.003Z,953.69
2016-07-29T09:31:34.007Z,953.66
2016-07-29T09:32:34.005Z,953.64
2016-07-29T09:33:33.997Z,953.64
2016-07-29T09:34:34.009Z,953.65
2016-07-29T09:35:34.002Z,953.64
2016-07-29T09:36:34.001Z,953.68
2016-07-29T09:37:33.997Z,953.64
2016-07-29T09:38:33.999Z,953.58
2016-07-29T09:39:33.992Z,953.58
2016-07-29T09:40:34.005Z,953.57
2016-07-29T09:41:33.998Z,953.61
2016-07-29T09:42:34.000Z,953.67
2016-07-29T09:43:34.001Z,953.64
2016-07-29T09:44:34.011Z,953.6
2016-07-29T09:45:34.008Z,953.55
2016-07-29T09:47:34.013Z,953.56
2016-07-29T09:48:34.005Z,953.6
2016-07-29T09:49:34.004Z,953.59
2016-07-29T09:50:34.010Z,953.53
2016-07-29T09:51:34.012Z,953.55
2016-07-29T09:52:34.029Z,953.53
2016-07-29T09:53:34.030Z,953.53
2016-07-29T09:54:34.018Z,953.51
2016-07-29T09:55:34.001Z,953.49
2016-07-29T09:56:34.003Z,953.52
2016-07-29T09:57:34.007Z,953.47
2016-07-29T09:58:34.015Z,953.45
2016-07-29T09:59:34.027Z,953.46
2016-07-29T10:00:34.018Z,953.44
2016-07-29T10:01:34.020Z,953.41
2016-07-29T10:02:34.039Z,953.37
2016-07-29T10:03:34.020Z,953.37
2016-07-29T10:04:34.027Z,953.39
2016-07-29T10:05:34.009Z,953.32
2016-07-29T10:06:34.010Z,953.32
2016-07-29T10:07:34.021Z,953.36
2016-07-29T10:08:34.009Z,953.32
2016-07-29T10:09:34.018Z,953.35
2016-07-29T10:10:34.012Z,953.4
2016-07-29T10:11:34.024Z,953.32
2016-07-29T10:12:34.052Z,953.32
2016-07-29T10:13:34.019Z,953.36
2016-07-29T10:14:34.013Z,953.27
2016-07-29T10:15:34.030Z,953.37
2016-07-29T10:16:34.013Z,953.3
2016-07-29T10:17:34.015Z,953.32
2016-07-29T10:18:34.024Z,953.4
2016-07-29T10:19:34.035Z,953.32
2016-07-29T10:20:34.019Z,953.31
2016-07-29T10:21:34.035Z,953.31
2016-07-29T10:22:34.048Z,953.3
2016-07-29T10:23:34.014Z,953.28
2016-07-29T10:24:34.023Z,953.26
2016-07-29T10:25:34.033Z,953.28
2016-07-29T10:26:34.036Z,953.26
2016-07-29T10:27:34.055Z,953.23
2016-07-29T10:28:34.030Z,953.25
2016-07-29T10:29:34.025Z,953.27
2016-07-29T10:30:34.039Z,953.21
2016-07-29T10:31:34.032Z,953.31
2016-07-29T10:32:34.027Z,953.3
2016-07-29T10:33:34.023Z,953.32
2016-07-29T10:34:34.035Z,953.34
2016-07-29T10:35:34.029Z,953.42
2016-07-29T10:36:34.028Z,953.31
2016-07-29T10:37:34.037Z,953.34
2016-07-29T10:38:34.027Z,953.35
2016-07-29T10:39:34.036Z,953.32
2016-07-29T10:40:34.043Z,953.34
2016-07-29T10:41:34.044Z,953.32
2016-07-29T10:42:34.042Z,953.41
2016-07-29T10:43:34.040Z,953.31
2016-07-29T10:44:34.040Z,953.37
2016-07-29T10:45:34.078Z,953.34
2016-07-29T10:46:34.137Z,953.35
2016-07-29T10:47:34.097Z,953.34
2016-07-29T10:48:34.170Z,953.3
2016-07-29T10:49:34.253Z,953.3
2016-07-29T10:50:34.072Z,953.3
2016-07-29T10:51:34.049Z,953.29
2016-07-29T10:52:34.051Z,953.27
2016-07-29T10:53:34.050Z,953.29
2016-07-29T10:54:34.058Z,953.29
2016-07-29T10:55:34.048Z,953.28
2016-07-29T10:56:34.059Z,953.29
2016-07-29T10:57:34.114Z,953.32
2016-07-29T10:58:34.055Z,953.29
2016-07-29T10:59:34.046Z,953.36
2016-07-29T11:00:34.050Z,953.31
2016-07-29T11:01:34.054Z,953.31
2016-07-29T11:02:34.064Z,953.32
2016-07-29T11:03:34.051Z,953.34
2016-07-29T11:04:34.056Z,953.41
2016-07-29T11:05:34.058Z,953.32
2016-07-29T11:06:34.069Z,953.33
2016-07-29T11:07:34.062Z,953.32
2016-07-29T11:08:34.061Z,953.38
2016-07-29T11:09:34.064Z,953.35
2016-07-29T11:10:34.063Z,953.31
2016-07-29T11:11:34.063Z,953.4
2016-07-29T11:12:34.075Z,953.38
2016-07-29T11:13:34.067Z,953.38
2016-07-29T11:14:34.069Z,953.34
2016-07-29T11:15:34.069Z,953.35
2016-07-29T11:16:34.072Z,953.39
2016-07-29T11:17:34.089Z,953.37
2016-07-29T11:18:34.074Z,953.39
2016-07-29T11:19:34.071Z,953.31
2016-07-29T11:20:34.086Z,953.34
2016-07-29T11:21:34.078Z,953.35
2016-07-29T11:22:34.086Z,953.38
2016-07-29T11:23:34.081Z,953.38
2016-07-29T11:24:34.086Z,953.4
2016-07-29T11:25:34.095Z,953.37
2016-07-29T11:26:34.099Z,953.4
2016-07-29T11:27:34.095Z,953.35
2016-07-29T11:28:34.098Z,953.37
2016-07-29T11:29:34.094Z,953.34
2016-07-29T11:30:34.105Z,953.39
2016-07-29T11:31:34.107Z,953.35
2016-07-29T11:32:34.092Z,953.38
2016-07-29T11:33:34.101Z,953.37
2016-07-29T11:34:34.098Z,953.3
2016-07-29T11:35:34.132Z,953.32
2016-07-29T11:36:34.107Z,953.29
2016-07-29T11:37:34.118Z,953.28
2016-07-29T11:38:34.102Z,953.29
2016-07-29T11:39:34.103Z,953.29
2016-07-29T11:40:34.113Z,953.28
2016-07-29T11:41:34.122Z,953.31
2016-07-29T11:42:34.116Z,953.35
2016-07-29T11:43:34.122Z,953.28
2016-07-29T11:44:34.128Z,953.38
2016-07-29T11:45:34.130Z,953.31
2016-07-29T11:46:34.129Z,953.24
2016-07-29T11:47:34.128Z,953.26
2016-07-29T11:48:34.142Z,953.24
2016-07-29T11:49:34.150Z,953.28
2016-07-29T11:50:34.140Z,953.28
2016-07-29T11:51:34.141Z,953.26
2016-07-29T11:52:34.131Z,953.26
2016-07-29T11:53:34.139Z,953.23
2016-07-29T11:54:34.137Z,953.22
2016-07-29T11:55:34.140Z,953.3
2016-07-29T11:56:34.149Z,953.27
2016-07-29T11:57:34.151Z,953.24
2016-07-29T11:58:34.149Z,953.26
2016-07-29T11:59:34.186Z,953.23
2016-07-29T12:00:34.164Z,953.25
2016-07-29T12:01:34.164Z,953.3
2016-07-29T12:02:34.159Z,953.27
2016-07-29T12:03:34.162Z,953.27
2016-07-29T12:04:34.162Z,953.27
2016-07-29T12:05:34.165Z,953.23
2016-07-29T12:06:34.168Z,953.22
2016-07-29T12:07:34.169Z,953.2
2016-07-29T12:08:34.175Z,953.17
2016-07-29T12:09:34.181Z,953.15
2016-07-29T12:10:34.181Z,953.15
2016-07-29T12:11:34.180Z,953.14
2016-07-29T12:12:34.180Z,953.12
2016-07-29T12:13:34.195Z,953.14
2016-07-29T12:14:34.190Z,953.09
2016-07-29T12:15:34.183Z,953.13
2016-07-29T12:16:34.189Z,953.04
2016-07-29T12:17:34.187Z,953.07
2016-07-29T12:18:34.194Z,953.14
2016-07-29T12:19:34.207Z,953.12
2016-07-29T12:20:34.218Z,953.08
2016-07-29T12:21:34.204Z,953.13
2016-07-29T12:22:34.199Z,953.21
2016-07-29T12:23:34.207Z,953.16
2016-07-29T12:24:34.207Z,953.17
2016-07-29T12:25:34.205Z,953.1
2016-07-29T12:26:34.208Z,953.21
2016-07-29T12:27:34.230Z,953.16
2016-07-29T12:28:34.202Z,953.18
2016-07-29T12:29:34.206Z,953.15
2016-07-29T12:30:34.210Z,953.14
2016-07-29T12:31:34.207Z,953.15
2016-07-29T12:32:34.219Z,953.08
2016-07-29T12:33:34.225Z,953.19
2016-07-29T12:34:34.239Z,953.19
2016-07-29T12:35:34.217Z,953.08
2016-07-29T12:36:34.222Z,953.15
2016-07-29T12:37:34.231Z,953.08
2016-07-29T12:38:34.233Z,953.05
2016-07-29T12:39:34.268Z,953.08
2016-07-29T12:40:34.229Z,953.05
2016-07-29T12:41:34.228Z,953.03
2016-07-29T12:42:34.235Z,953.13
2016-07-29T12:43:34.249Z,953.07
2016-07-29T12:44:34.239Z,953.02